createdAt,value
2018-06-17T00:02:14.039Z,17.60
2018-06-17T00:04:43.402Z,17.60
2018-06-17T00:07:12.726Z,17.60
2018-06-17T00:09:42.077Z,17.60
2018-06-17T00:12:11.362Z,17.60
2018-06-17T00:14:41.127Z,17.60
2018-06-17T00:17:11.439Z,17.60
2018-06-17T00:22:17.839Z,17.50
2018-06-17T00:27:16.282Z,17.00
2018-06-17T00:29:45.706Z,16.90
2018-06-17T00:32:15.236Z,16.90
2018-06-17T00:34:44.631Z,16.60
2018-06-17T00:37:14.178Z,16.50
2018-06-17T00:39:43.504Z,16.50
2018-06-17T00:42:12.826Z,16.40
2018-06-17T00:47:11.123Z,16.10
2018-06-17T00:49:41.402Z,16.00
2018-06-17T00:52:10.886Z,15.90
2018-06-17T00:54:40.438Z,15.80
2018-06-17T00:57:21.030Z,15.60
2018-06-17T01:08:03.955Z,15.50
2018-06-17T01:10:33.435Z,15.60
2018-06-17T01:13:02.775Z,15.60
2018-06-17T01:15:32.118Z,15.70
2018-06-17T01:18:01.469Z,15.70
2018-06-17T01:20:30.870Z,15.80
2018-06-17T01:23:00.206Z,15.70
2018-06-17T01:25:29.683Z,15.70
2018-06-17T01:27:59.194Z,15.70
2018-06-17T01:30:28.702Z,15.80
2018-06-17T01:32:58.166Z,15.80
2018-06-17T01:35:27.663Z,15.70
2018-06-17T01:37:57.134Z,15.90
2018-06-17T01:40:26.653Z,16.00
2018-06-17T01:42:56.039Z,16.20
2018-06-17T01:45:25.534Z,16.30
2018-06-17T01:47:54.846Z,16.40
2018-06-17T01:50:24.326Z,16.30
2018-06-17T01:52:53.814Z,16.20
2018-06-17T01:55:23.257Z,16.10
2018-06-17T01:57:52.738Z,15.90
2018-06-17T02:00:22.267Z,16.00
2018-06-17T02:08:28.126Z,16.00
2018-06-17T02:11:02.876Z,16.00
2018-06-17T02:13:32.339Z,15.60
2018-06-17T02:16:01.813Z,15.30
2018-06-17T02:21:00.107Z,15.20
2018-06-17T02:23:29.650Z,15.20
2018-06-17T02:25:58.990Z,15.00
2018-06-17T02:28:28.514Z,15.00
2018-06-17T02:30:57.998Z,15.00
2018-06-17T02:33:27.434Z,14.90
2018-06-17T02:35:56.819Z,14.90
2018-06-17T02:38:27.212Z,14.90
2018-06-17T02:40:56.586Z,15.00
2018-06-17T02:43:25.905Z,15.10
2018-06-17T02:46:02.644Z,15.30
2018-06-17T02:48:37.281Z,15.30
2018-06-17T02:51:12.006Z,15.50
2018-06-17T02:57:54.147Z,15.50
2018-06-17T03:00:23.669Z,15.50
2018-06-17T03:02:53.027Z,15.50
2018-06-17T03:05:22.367Z,15.50
2018-06-17T03:07:51.750Z,15.50
2018-06-17T03:10:22.106Z,15.60
2018-06-17T03:12:51.788Z,15.80
2018-06-17T03:15:21.262Z,15.90
2018-06-17T03:17:50.695Z,16.00
2018-06-17T03:20:23.754Z,16.10
2018-06-17T03:22:53.206Z,16.30
2018-06-17T03:25:27.857Z,16.40
2018-06-17T03:28:02.482Z,16.50
2018-06-17T03:30:37.117Z,16.60
2018-06-17T03:33:11.966Z,16.50
2018-06-17T03:35:46.862Z,16.50
2018-06-17T03:38:16.329Z,16.30
2018-06-17T03:40:45.740Z,16.00
2018-06-17T03:43:18.247Z,16.00
2018-06-17T03:45:47.628Z,15.80
2018-06-17T03:48:16.979Z,15.80
2018-06-17T03:50:46.333Z,15.70
2018-06-17T03:53:15.832Z,15.80
2018-06-17T03:55:45.223Z,15.80
2018-06-17T04:00:43.708Z,15.80
2018-06-17T04:03:13.071Z,15.80
2018-06-17T04:05:42.526Z,15.80
2018-06-17T04:08:11.910Z,15.70
2018-06-17T04:10:41.338Z,15.50
2018-06-17T04:13:10.876Z,15.60
2018-06-17T04:15:40.254Z,15.60
2018-06-17T04:18:10.194Z,15.60
2018-06-17T04:20:39.861Z,15.60
2018-06-17T04:23:09.351Z,15.60
2018-06-17T04:25:38.845Z,15.70
2018-06-17T04:28:08.350Z,15.70
2018-06-17T04:33:06.871Z,15.90
2018-06-17T04:35:36.232Z,15.90
2018-06-17T04:38:05.659Z,16.00
2018-06-17T04:40:34.994Z,16.00
2018-06-17T04:43:04.354Z,16.00
2018-06-17T04:45:33.727Z,15.90
2018-06-17T04:48:03.078Z,15.90
2018-06-17T04:50:34.175Z,15.90
2018-06-17T04:53:03.626Z,15.90
2018-06-17T04:58:02.263Z,15.80
2018-06-17T05:00:31.663Z,15.80
2018-06-17T05:03:01.016Z,15.80
2018-06-17T05:10:24.538Z,15.80
2018-06-17T05:24:03.507Z,15.90
2018-06-17T05:26:46.325Z,15.90
2018-06-17T05:29:17.151Z,15.80
2018-06-17T05:31:46.491Z,15.90
2018-06-17T05:38:09.755Z,15.90
2018-06-17T05:40:39.087Z,15.90
2018-06-17T05:43:08.467Z,15.70
2018-06-17T05:45:37.830Z,15.60
2018-06-17T05:48:07.323Z,15.60
2018-06-17T05:50:36.664Z,15.50
2018-06-17T05:53:06.014Z,15.40
2018-06-17T06:01:39.970Z,15.40
2018-06-17T06:04:09.482Z,15.50
2018-06-17T06:06:38.819Z,15.50
2018-06-17T06:09:09.666Z,15.50
2018-06-17T06:11:41.976Z,15.50
2018-06-17T06:14:11.298Z,15.60
2018-06-17T06:16:40.708Z,15.80
2018-06-17T06:19:10.051Z,15.90
2018-06-17T06:21:39.543Z,16.10
2018-06-17T06:24:08.998Z,16.10
2018-06-17T06:26:38.479Z,16.10
2018-06-17T06:29:09.295Z,16.00
2018-06-17T06:31:38.767Z,16.10
2018-06-17T06:34:08.249Z,16.10
2018-06-17T06:36:37.550Z,16.00
2018-06-17T06:39:08.730Z,16.00
2018-06-17T06:41:38.051Z,16.20
2018-06-17T06:44:07.415Z,16.30
2018-06-17T06:46:36.762Z,16.40
2018-06-17T06:49:06.211Z,16.40
2018-06-17T06:51:36.199Z,16.20
2018-06-17T06:54:05.750Z,16.20
2018-06-17T07:00:09.787Z,16.00
2018-06-17T07:02:50.232Z,15.90
2018-06-17T07:05:30.895Z,15.90
2018-06-17T07:08:11.574Z,16.00
2018-06-17T07:13:09.827Z,15.80
2018-06-17T07:15:50.350Z,15.80
2018-06-17T07:18:31.156Z,15.90
2018-06-17T07:21:00.648Z,15.80
2018-06-17T07:23:30.330Z,15.80
2018-06-17T07:26:43.782Z,16.00
2018-06-17T07:29:27.882Z,16.20
2018-06-17T07:31:57.330Z,16.20
2018-06-17T07:34:26.810Z,16.10
2018-06-17T07:36:56.226Z,16.10
2018-06-17T07:41:34.649Z,16.30
2018-06-17T07:44:04.176Z,16.40
2018-06-17T07:46:33.542Z,16.50
2018-06-17T07:49:42.435Z,16.50
2018-06-17T07:52:24.167Z,16.60
2018-06-17T07:54:53.742Z,16.70
2018-06-17T07:57:24.255Z,16.80
2018-06-17T07:59:53.772Z,17.00
2018-06-17T08:02:23.330Z,17.00
2018-06-17T08:07:30.214Z,17.10
2018-06-17T08:09:59.506Z,17.10
2018-06-17T08:12:28.802Z,17.10
2018-06-17T08:14:58.178Z,17.20
2018-06-17T08:17:27.507Z,17.20
2018-06-17T08:19:57.114Z,17.10
2018-06-17T08:22:26.438Z,17.00
2018-06-17T08:24:55.758Z,17.10
2018-06-17T08:27:25.288Z,17.10
2018-06-17T08:29:54.621Z,17.10
2018-06-17T08:32:23.926Z,17.00
2018-06-17T08:34:53.266Z,17.00
2018-06-17T08:37:22.615Z,17.00
2018-06-17T08:39:52.708Z,17.10
2018-06-17T08:42:22.071Z,17.20
2018-06-17T08:44:52.336Z,17.40
2018-06-17T08:47:22.222Z,17.50
2018-06-17T08:49:52.434Z,17.60
2018-06-17T08:52:21.927Z,17.80
2018-06-17T08:54:52.278Z,18.00
2018-06-17T08:57:21.686Z,18.10
2018-06-17T08:59:51.172Z,18.00
2018-06-17T09:02:20.566Z,18.00
2018-06-17T09:04:49.920Z,18.10
2018-06-17T09:07:19.247Z,18.10
2018-06-17T09:09:48.564Z,18.10
2018-06-17T09:12:17.889Z,18.20
2018-06-17T09:14:48.220Z,18.20
2018-06-17T09:17:17.705Z,18.20
2018-06-17T09:19:47.216Z,18.10
2018-06-17T09:24:45.506Z,18.20
2018-06-17T09:27:14.910Z,18.30
2018-06-17T09:29:46.403Z,18.40
2018-06-17T09:32:16.026Z,18.50
2018-06-17T09:34:45.456Z,18.50
2018-06-17T09:37:14.965Z,18.60
2018-06-17T09:39:44.342Z,18.70
2018-06-17T09:46:10.460Z,18.80
2018-06-17T09:48:39.803Z,18.80
2018-06-17T09:51:09.278Z,18.70
2018-06-17T09:53:38.697Z,18.70
2018-06-17T09:56:08.102Z,18.70
2018-06-17T09:58:37.462Z,18.70
2018-06-17T10:01:08.022Z,18.70
2018-06-17T10:03:37.543Z,18.80
2018-06-17T10:06:07.008Z,18.90
2018-06-17T10:11:07.935Z,18.80
2018-06-17T10:13:42.474Z,18.70
2018-06-17T10:16:12.370Z,18.60
2018-06-17T10:18:41.930Z,18.50
2018-06-17T10:21:11.437Z,18.30
2018-06-17T10:23:40.846Z,18.20
2018-06-17T10:26:10.254Z,18.10
2018-06-17T10:28:39.730Z,18.10
2018-06-17T10:31:09.218Z,18.20
2018-06-17T10:33:38.542Z,18.20
2018-06-17T10:36:07.923Z,18.30
2018-06-17T10:38:37.222Z,18.40
2018-06-17T10:41:06.503Z,18.40
2018-06-17T10:43:35.996Z,18.40
2018-06-17T10:46:05.507Z,18.30
2018-06-17T10:48:35.212Z,18.40
2018-06-17T10:51:04.555Z,18.50
2018-06-17T10:53:34.110Z,18.50
2018-06-17T10:56:03.692Z,18.50
2018-06-17T10:58:33.042Z,18.70
2018-06-17T11:01:02.566Z,18.80
2018-06-17T11:03:33.179Z,18.80
2018-06-17T11:06:02.736Z,18.90
2018-06-17T11:08:32.055Z,18.90
2018-06-17T11:11:01.371Z,19.20
2018-06-17T11:13:30.708Z,19.40
2018-06-17T11:16:00.045Z,19.50
2018-06-17T11:18:29.526Z,19.60
2018-06-17T11:20:59.003Z,19.70
2018-06-17T11:23:28.314Z,19.80
2018-06-17T11:28:27.875Z,19.90
2018-06-17T11:30:58.286Z,20.10
2018-06-17T11:33:27.759Z,20.00
2018-06-17T11:35:57.068Z,20.10
2018-06-17T11:38:26.370Z,20.10
2018-06-17T11:40:55.677Z,20.10
2018-06-17T11:43:24.989Z,20.10
2018-06-17T11:45:54.451Z,20.20
2018-06-17T11:48:23.894Z,20.40
2018-06-17T11:50:55.048Z,20.40
2018-06-17T11:53:24.559Z,20.50
2018-06-17T11:55:54.011Z,20.70
2018-06-17T11:58:24.282Z,20.80
2018-06-17T12:00:53.603Z,20.80
2018-06-17T12:03:23.035Z,20.80
2018-06-17T12:05:52.892Z,20.90
2018-06-17T12:08:22.204Z,20.90
2018-06-17T12:10:51.494Z,21.10
2018-06-17T12:13:20.762Z,21.10
2018-06-17T12:15:50.322Z,21.10
2018-06-17T12:18:19.658Z,21.10
2018-06-17T12:20:49.203Z,21.10
2018-06-17T12:23:18.658Z,21.20
2018-06-17T12:25:48.475Z,21.20
2018-06-17T12:28:17.878Z,21.20
2018-06-17T12:30:47.314Z,21.10
2018-06-17T12:33:16.698Z,21.10
2018-06-17T12:35:46.198Z,21.20
2018-06-17T12:38:15.510Z,21.20
2018-06-17T12:40:44.830Z,21.20
2018-06-17T12:43:14.210Z,21.20
2018-06-17T12:45:43.699Z,21.20
2018-06-17T12:48:14.386Z,21.30
2018-06-17T12:50:43.905Z,21.40
2018-06-17T12:53:13.390Z,21.40
2018-06-17T12:55:42.731Z,21.40
2018-06-17T12:58:12.225Z,21.40
2018-06-17T13:00:41.636Z,21.40
2018-06-17T13:03:11.291Z,21.40
2018-06-17T13:05:40.679Z,21.50
2018-06-17T13:08:10.000Z,21.40
2018-06-17T13:10:39.306Z,21.40
2018-06-17T13:13:09.995Z,21.50
2018-06-17T13:15:40.354Z,21.50
2018-06-17T13:18:09.703Z,21.50
2018-06-17T13:20:39.190Z,21.40
2018-06-17T13:23:08.570Z,21.40
2018-06-17T13:25:38.095Z,21.40
2018-06-17T13:28:07.643Z,21.30
2018-06-17T13:30:37.191Z,21.30
2018-06-17T13:33:06.661Z,21.30
2018-06-17T13:35:36.171Z,21.20
2018-06-17T13:38:05.562Z,21.30
2018-06-17T13:40:35.010Z,21.30
2018-06-17T13:43:05.255Z,21.30
2018-06-17T13:45:34.775Z,21.20
2018-06-17T13:48:04.373Z,21.10
2018-06-17T13:53:03.303Z,21.10
2018-06-17T13:55:32.761Z,21.10
2018-06-17T13:58:02.107Z,21.10
2018-06-17T14:03:00.627Z,20.80
2018-06-17T14:05:30.051Z,20.60
2018-06-17T14:07:59.519Z,20.50
2018-06-17T14:10:28.859Z,20.70
2018-06-17T14:12:58.227Z,20.60
2018-06-17T14:15:27.731Z,20.70
2018-06-17T14:17:57.136Z,20.80
2018-06-17T14:20:26.503Z,21.00
2018-06-17T14:22:55.953Z,21.20
2018-06-17T14:25:25.438Z,21.40
2018-06-17T14:28:01.364Z,21.40
2018-06-17T14:30:30.878Z,21.50
2018-06-17T14:33:01.603Z,21.70
2018-06-17T14:35:31.009Z,21.80
2018-06-17T14:38:00.391Z,21.90
2018-06-17T14:40:34.401Z,22.00
2018-06-17T14:43:10.738Z,22.10
2018-06-17T14:45:45.667Z,22.00
2018-06-17T14:48:20.391Z,22.10
2018-06-17T14:50:55.055Z,22.20
2018-06-17T14:53:24.513Z,22.30
2018-06-17T14:55:54.092Z,22.30
2018-06-17T14:58:23.654Z,22.40
2018-06-17T15:00:53.220Z,22.60
2018-06-17T15:03:24.338Z,22.70
2018-06-17T15:05:53.770Z,22.80
2018-06-17T15:08:23.323Z,22.80
2018-06-17T15:10:53.277Z,22.90
2018-06-17T15:13:22.831Z,22.80
2018-06-17T15:15:53.238Z,22.70
2018-06-17T15:18:22.542Z,22.70
2018-06-17T15:20:51.946Z,22.80
2018-06-17T15:23:21.358Z,22.70
2018-06-17T15:25:50.912Z,22.50
2018-06-17T15:28:20.415Z,22.40
2018-06-17T15:30:51.228Z,22.50
2018-06-17T15:33:26.066Z,22.40
2018-06-17T15:47:01.491Z,22.40
2018-06-17T15:49:30.963Z,22.40
2018-06-17T15:52:00.546Z,21.00
2018-06-17T15:54:29.980Z,20.90
2018-06-17T15:56:59.459Z,20.90
2018-06-17T15:59:28.951Z,20.90
2018-06-17T16:01:58.778Z,20.90
2018-06-17T16:04:28.263Z,20.90
2018-06-17T16:06:57.764Z,21.00
2018-06-17T16:09:28.314Z,21.00
2018-06-17T16:12:02.949Z,21.10
2018-06-17T16:14:38.435Z,21.10
2018-06-17T16:17:13.535Z,21.30
2018-06-17T16:19:48.170Z,21.40
2018-06-17T16:22:17.798Z,21.50
2018-06-17T16:24:47.282Z,21.50
2018-06-17T16:27:16.801Z,21.50
2018-06-17T16:33:14.738Z,21.40
2018-06-17T16:35:44.251Z,21.30
2018-06-17T16:38:13.621Z,21.20
2018-06-17T16:40:42.934Z,21.20
2018-06-17T16:43:12.259Z,21.30
2018-06-17T16:45:41.744Z,21.30
2018-06-17T16:48:11.162Z,21.30
2018-06-17T16:50:42.818Z,21.30
2018-06-17T16:53:17.632Z,21.30
2018-06-17T16:55:52.294Z,21.40
2018-06-17T16:58:26.858Z,21.50
2018-06-17T17:00:56.293Z,21.60
2018-06-17T17:03:25.806Z,21.60
2018-06-17T17:05:55.278Z,21.70
2018-06-17T17:08:24.611Z,21.70
2018-06-17T17:10:53.925Z,21.70
2018-06-17T17:13:23.310Z,21.70
2018-06-17T17:15:53.418Z,21.60
2018-06-17T17:18:22.834Z,21.70
2018-06-17T17:20:52.190Z,21.70
2018-06-17T17:23:21.661Z,21.70
2018-06-17T17:25:51.175Z,21.60
2018-06-17T17:28:20.674Z,21.60
2018-06-17T17:30:50.627Z,21.50
2018-06-17T17:33:25.299Z,21.40
2018-06-17T17:35:59.996Z,21.30
2018-06-17T17:38:33.787Z,21.00
2018-06-17T17:41:05.023Z,20.90
2018-06-17T17:43:34.364Z,20.80
2018-06-17T17:46:08.926Z,20.70
2018-06-17T17:51:07.396Z,20.60
2018-06-17T17:53:36.894Z,20.60
2018-06-17T18:00:15.288Z,20.60
2018-06-17T18:02:44.734Z,20.60
2018-06-17T18:20:30.464Z,20.60
2018-06-17T18:23:05.213Z,20.10
2018-06-17T18:25:45.219Z,20.10
2018-06-17T18:28:25.324Z,20.20
2018-06-17T18:30:55.497Z,20.20
2018-06-17T18:33:30.103Z,20.20
2018-06-17T18:36:04.929Z,20.10
2018-06-17T18:38:34.503Z,20.10
2018-06-17T18:41:04.124Z,20.00
2018-06-17T18:43:33.619Z,20.00
2018-06-17T18:46:02.948Z,19.90
2018-06-17T18:48:32.383Z,19.80
2018-06-17T18:51:01.758Z,19.70
2018-06-17T18:53:31.251Z,19.60
2018-06-17T18:56:00.610Z,19.50
2018-06-17T18:58:29.968Z,19.40
2018-06-17T19:00:59.307Z,19.50
2018-06-17T19:03:29.663Z,19.50
2018-06-17T19:05:59.140Z,19.60
2018-06-17T19:08:33.880Z,19.60
2018-06-17T19:11:09.987Z,19.70
2018-06-17T19:16:19.282Z,19.70
2018-06-17T19:18:48.665Z,19.70
2018-06-17T19:21:18.227Z,19.70
2018-06-17T19:23:47.554Z,19.70
2018-06-17T19:26:16.904Z,19.70
2018-06-17T19:28:46.174Z,19.60
2018-06-17T19:31:15.544Z,19.60
2018-06-17T19:33:45.064Z,19.60
2018-06-17T19:36:14.368Z,19.40
2018-06-17T19:38:45.133Z,19.40
2018-06-17T19:41:14.570Z,19.40
2018-06-17T19:43:43.943Z,19.40
2018-06-17T19:46:13.321Z,19.40
2018-06-17T19:48:42.891Z,19.30
2018-06-17T19:51:17.512Z,19.30
2018-06-17T19:53:52.142Z,19.30
2018-06-17T19:56:26.970Z,19.20
2018-06-17T19:59:01.559Z,19.10
2018-06-17T20:01:30.895Z,19.10
2018-06-17T20:06:29.513Z,18.90
2018-06-17T20:08:58.812Z,18.90
2018-06-17T20:11:28.380Z,18.70
2018-06-17T20:13:57.876Z,18.70
2018-06-17T20:16:27.335Z,18.60
2018-06-17T20:18:56.703Z,18.50
2018-06-17T20:21:26.739Z,18.50
2018-06-17T20:23:56.166Z,18.40
2018-06-17T20:26:25.514Z,18.40
2018-06-17T20:28:54.921Z,18.40
2018-06-17T20:31:24.322Z,18.40
2018-06-17T20:33:59.126Z,18.40
2018-06-17T20:36:33.672Z,18.40
2018-06-17T20:52:50.828Z,18.40
2018-06-17T20:55:20.330Z,18.40
2018-06-17T20:57:49.695Z,18.00
2018-06-17T21:00:19.208Z,17.90
2018-06-17T21:02:48.627Z,17.90
2018-06-17T21:05:17.971Z,17.80
2018-06-17T21:07:47.335Z,17.80
2018-06-17T21:10:16.695Z,17.80
2018-06-17T21:12:46.099Z,17.80
2018-06-17T21:15:17.406Z,17.80
2018-06-17T21:17:48.326Z,17.80
2018-06-17T21:20:23.142Z,17.80
2018-06-17T21:22:57.998Z,17.80
2018-06-17T21:25:32.646Z,17.80
2018-06-17T21:28:02.461Z,17.70
2018-06-17T21:30:31.791Z,17.60
2018-06-17T21:33:01.175Z,17.60
2018-06-17T21:39:15.047Z,17.60
2018-06-17T21:41:44.510Z,17.60
2018-06-17T21:44:13.826Z,17.50
2018-06-17T21:49:12.200Z,17.50
2018-06-17T21:51:41.543Z,17.40
2018-06-17T21:54:11.026Z,17.40
2018-06-17T21:56:40.355Z,17.40
2018-06-17T21:59:09.691Z,17.40
2018-06-17T22:01:38.992Z,17.30
2018-06-17T22:04:13.422Z,17.30
2018-06-17T22:06:42.707Z,17.20
2018-06-17T22:09:17.363Z,17.20
2018-06-17T22:11:52.025Z,17.20
2018-06-17T22:14:26.882Z,17.20
2018-06-17T22:17:02.930Z,17.20
2018-06-17T22:19:32.415Z,17.20
2018-06-17T22:22:01.706Z,17.20
2018-06-17T22:24:31.132Z,17.20
2018-06-17T22:27:00.456Z,17.20
2018-06-17T22:29:29.762Z,17.10
2018-06-17T22:31:59.087Z,17.10
2018-06-17T22:34:28.398Z,17.10
2018-06-17T22:36:57.723Z,17.00
2018-06-17T22:39:27.224Z,17.00
2018-06-17T22:41:56.763Z,17.00
2018-06-17T22:44:26.428Z,16.90
2018-06-17T22:46:55.858Z,16.80
2018-06-17T22:49:25.300Z,16.80
2018-06-17T22:51:54.646Z,16.80
2018-06-17T22:54:35.394Z,16.80
2018-06-17T22:59:44.461Z,16.70
2018-06-17T23:02:18.978Z,16.70
2018-06-17T23:04:53.560Z,16.60
2018-06-17T23:07:28.443Z,16.60
2018-06-17T23:29:30.178Z,16.50
2018-06-17T23:31:59.518Z,16.50
2018-06-17T23:34:28.846Z,15.60
2018-06-17T23:36:58.142Z,15.60
2018-06-17T23:39:27.791Z,15.60
2018-06-17T23:41:57.170Z,15.70
2018-06-17T23:44:26.608Z,15.70
2018-06-17T23:47:01.538Z,15.80
2018-06-17T23:49:36.098Z,15.80
2018-06-17T23:52:10.962Z,15.80
2018-06-17T23:58:15.834Z,15.90
